createdAt,value
2018-07-09T00:00:22.984Z,1014.69
2018-07-09T00:01:03.578Z,1014.69
2018-07-09T00:01:44.137Z,1014.68
2018-07-09T00:02:24.701Z,1014.75
2018-07-09T00:03:05.425Z,1014.74
2018-07-09T00:03:45.968Z,1014.7
2018-07-09T00:04:26.537Z,1014.71
2018-07-09T00:05:07.094Z,1014.68
2018-07-09T00:05:47.657Z,1014.73
2018-07-09T00:06:28.206Z,1014.69
2018-07-09T00:07:08.788Z,1014.78
2018-07-09T00:07:49.358Z,1014.67
2018-07-09T00:08:29.943Z,1014.73
2018-07-09T00:09:10.494Z,1014.69
2018-07-09T00:09:51.084Z,1014.69
2018-07-09T00:10:31.629Z,1014.74
2018-07-09T00:11:12.209Z,1014.71
2018-07-09T00:11:52.764Z,1014.74
2018-07-09T00:12:33.334Z,1014.73
2018-07-09T00:13:13.896Z,1014.7
2018-07-09T00:13:54.447Z,1014.74
2018-07-09T00:14:35.002Z,1014.74
2018-07-09T00:15:15.575Z,1014.74
2018-07-09T00:15:56.120Z,1014.73
2018-07-09T00:16:36.689Z,1014.78
2018-07-09T00:17:17.254Z,1014.78
2018-07-09T00:17:57.826Z,1014.77
2018-07-09T00:18:38.379Z,1014.78
2018-07-09T00:19:18.931Z,1014.76
2018-07-09T00:19:59.504Z,1014.79
2018-07-09T00:20:40.093Z,1014.77
2018-07-09T00:21:20.662Z,1014.8
2018-07-09T00:22:01.211Z,1014.8
2018-07-09T00:22:41.802Z,1014.79
2018-07-09T00:23:22.361Z,1014.78
2018-07-09T00:24:02.924Z,1014.82
2018-07-09T00:24:43.488Z,1014.83
2018-07-09T00:25:24.043Z,1014.84
2018-07-09T00:26:04.592Z,1014.8
2018-07-09T00:26:45.155Z,1014.8
2018-07-09T00:27:25.716Z,1014.81
2018-07-09T00:28:06.286Z,1014.81
2018-07-09T00:28:46.854Z,1014.8
2018-07-09T00:29:27.424Z,1014.82
2018-07-09T00:30:07.995Z,1014.79
2018-07-09T00:30:48.543Z,1014.82
2018-07-09T00:31:29.098Z,1014.78
2018-07-09T00:32:09.650Z,1014.78
2018-07-09T00:32:50.219Z,1014.81
2018-07-09T00:33:30.785Z,1014.8
2018-07-09T00:34:11.352Z,1014.8
2018-07-09T00:34:51.923Z,1014.77
2018-07-09T00:35:32.480Z,1014.78
2018-07-09T00:36:13.048Z,1014.77
2018-07-09T00:36:53.614Z,1014.78
2018-07-09T00:37:34.165Z,1014.75
2018-07-09T00:38:14.737Z,1014.72
2018-07-09T00:38:55.300Z,1014.77
2018-07-09T00:39:35.852Z,1014.71
2018-07-09T00:40:16.438Z,1014.73
2018-07-09T00:40:56.987Z,1014.72
2018-07-09T00:41:37.555Z,1014.75
2018-07-09T00:42:18.109Z,1014.72
2018-07-09T00:42:58.672Z,1014.74
2018-07-09T00:43:39.238Z,1014.77
2018-07-09T00:44:19.793Z,1014.77
2018-07-09T00:45:00.347Z,1014.76
2018-07-09T00:45:40.905Z,1014.75
2018-07-09T00:46:21.483Z,1014.77
2018-07-09T00:47:02.034Z,1014.74
2018-07-09T00:47:42.615Z,1014.74
2018-07-09T00:48:23.162Z,1014.76
2018-07-09T00:49:03.748Z,1014.74
2018-07-09T00:49:44.301Z,1014.71
2018-07-09T00:50:24.860Z,1014.73
2018-07-09T00:51:05.525Z,1014.74
2018-07-09T00:51:45.985Z,1014.73
2018-07-09T00:52:26.566Z,1014.73
2018-07-09T00:53:07.118Z,1014.74
2018-07-09T00:53:47.678Z,1014.78
2018-07-09T00:54:28.229Z,1014.77
2018-07-09T00:55:08.775Z,1014.77
2018-07-09T00:55:49.345Z,1014.76
2018-07-09T00:56:29.931Z,1014.74
2018-07-09T00:57:10.480Z,1014.8
2018-07-09T00:57:51.059Z,1014.75
2018-07-09T00:58:31.625Z,1014.76
2018-07-09T00:59:12.183Z,1014.76
2018-07-09T00:59:52.745Z,1014.75
2018-07-09T01:00:33.315Z,1014.77
2018-07-09T01:01:13.862Z,1014.75
2018-07-09T01:03:41.906Z,1014.75
2018-07-09T01:04:22.455Z,1014.78
2018-07-09T01:05:03.008Z,1014.76
2018-07-09T01:05:43.587Z,1014.78
2018-07-09T01:06:24.169Z,1014.76
2018-07-09T01:07:04.740Z,1014.81
2018-07-09T01:07:45.285Z,1014.79
2018-07-09T01:08:25.849Z,1014.77
2018-07-09T01:09:06.411Z,1014.8
2018-07-09T01:09:46.978Z,1014.81
2018-07-09T01:10:27.542Z,1014.79
2018-07-09T01:11:08.147Z,1014.76
2018-07-09T01:11:48.661Z,1014.74
2018-07-09T01:12:29.228Z,1014.76
2018-07-09T01:13:09.800Z,1014.71
2018-07-09T01:13:50.359Z,1014.7
2018-07-09T01:14:30.915Z,1014.73
2018-07-09T01:15:11.472Z,1014.71
2018-07-09T01:15:52.022Z,1014.73
2018-07-09T01:16:32.583Z,1014.73
2018-07-09T01:17:13.153Z,1014.73
2018-07-09T01:17:53.707Z,1014.74
2018-07-09T01:18:34.287Z,1014.7
2018-07-09T01:19:14.841Z,1014.72
2018-07-09T01:19:55.397Z,1014.68
2018-07-09T01:20:35.950Z,1014.74
2018-07-09T01:21:16.503Z,1014.75
2018-07-09T01:21:57.070Z,1014.7
2018-07-09T01:22:37.682Z,1014.67
2018-07-09T01:23:18.222Z,1014.7
2018-07-09T01:23:58.792Z,1014.68
2018-07-09T01:24:39.362Z,1014.7
2018-07-09T01:25:19.925Z,1014.67
2018-07-09T01:26:00.486Z,1014.67
2018-07-09T01:26:41.047Z,1014.66
2018-07-09T01:27:21.615Z,1014.69
2018-07-09T01:28:02.175Z,1014.67
2018-07-09T01:28:42.745Z,1014.68
2018-07-09T01:29:23.315Z,1014.69
2018-07-09T01:30:03.884Z,1014.66
2018-07-09T01:30:44.450Z,1014.69
2018-07-09T01:31:25.011Z,1014.65
2018-07-09T01:32:05.582Z,1014.69
2018-07-09T01:32:46.147Z,1014.65
2018-07-09T01:33:26.707Z,1014.63
2018-07-09T01:34:07.286Z,1014.64
2018-07-09T01:34:47.836Z,1014.62
2018-07-09T01:35:28.400Z,1014.64
2018-07-09T01:36:08.980Z,1014.61
2018-07-09T01:36:49.532Z,1014.58
2018-07-09T01:37:30.103Z,1014.61
2018-07-09T01:38:10.746Z,1014.6
2018-07-09T01:38:51.311Z,1014.6
2018-07-09T01:39:31.881Z,1014.58
2018-07-09T01:40:12.434Z,1014.65
2018-07-09T01:40:52.985Z,1014.63
2018-07-09T01:41:33.528Z,1014.62
2018-07-09T01:42:14.120Z,1014.59
2018-07-09T01:42:54.689Z,1014.64
2018-07-09T01:43:35.262Z,1014.62
2018-07-09T01:44:15.821Z,1014.66
2018-07-09T01:44:56.398Z,1014.67
2018-07-09T01:45:36.951Z,1014.6
2018-07-09T01:46:17.510Z,1014.61
2018-07-09T01:46:58.058Z,1014.58
2018-07-09T01:47:38.612Z,1014.57
2018-07-09T01:48:19.165Z,1014.58
2018-07-09T01:48:59.710Z,1014.6
2018-07-09T01:49:40.268Z,1014.62
2018-07-09T01:50:20.822Z,1014.59
2018-07-09T01:51:01.398Z,1014.61
2018-07-09T01:51:41.945Z,1014.57
2018-07-09T01:52:22.516Z,1014.6
2018-07-09T01:53:03.091Z,1014.54
2018-07-09T01:53:43.642Z,1014.53
2018-07-09T01:54:24.213Z,1014.56
2018-07-09T01:55:04.766Z,1014.55
2018-07-09T01:55:45.326Z,1014.56
2018-07-09T01:56:25.874Z,1014.53
2018-07-09T01:57:06.426Z,1014.55
2018-07-09T01:57:46.982Z,1014.55
2018-07-09T01:58:27.548Z,1014.54
2018-07-09T01:59:08.132Z,1014.54
2018-07-09T01:59:48.691Z,1014.57
2018-07-09T02:00:29.261Z,1014.55
2018-07-09T02:01:09.810Z,1014.53
2018-07-09T02:01:50.362Z,1014.57
2018-07-09T02:02:30.925Z,1014.52
2018-07-09T02:03:11.473Z,1014.54
2018-07-09T02:03:52.030Z,1014.57
2018-07-09T02:04:32.572Z,1014.56
2018-07-09T02:05:13.136Z,1014.61
2018-07-09T02:05:53.709Z,1014.6
2018-07-09T02:06:34.266Z,1014.64
2018-07-09T02:07:14.826Z,1014.59
2018-07-09T02:07:55.397Z,1014.62
2018-07-09T02:08:35.964Z,1014.58
2018-07-09T02:09:16.513Z,1014.57
2018-07-09T02:09:57.079Z,1014.55
2018-07-09T02:10:37.674Z,1014.52
2018-07-09T02:11:18.249Z,1014.49
2018-07-09T02:11:58.819Z,1014.52
2018-07-09T02:12:39.382Z,1014.47
2018-07-09T02:13:19.966Z,1014.5
2018-07-09T02:14:00.544Z,1014.49
2018-07-09T02:14:41.106Z,1014.49
2018-07-09T02:15:21.673Z,1014.46
2018-07-09T02:16:02.234Z,1014.44
2018-07-09T02:16:42.787Z,1014.46
2018-07-09T02:17:23.357Z,1014.45
2018-07-09T02:18:03.900Z,1014.47
2018-07-09T02:18:44.440Z,1014.49
2018-07-09T02:19:25.005Z,1014.47
2018-07-09T02:20:05.562Z,1014.53
2018-07-09T02:20:46.140Z,1014.52
2018-07-09T02:21:26.691Z,1014.48
2018-07-09T02:22:07.271Z,1014.46
2018-07-09T02:22:47.838Z,1014.49
2018-07-09T02:23:28.392Z,1014.52
2018-07-09T02:24:08.952Z,1014.48
2018-07-09T02:24:49.508Z,1014.5
2018-07-09T02:25:30.060Z,1014.53
2018-07-09T02:26:10.634Z,1014.52
2018-07-09T02:26:51.231Z,1014.54
2018-07-09T02:27:31.770Z,1014.51
2018-07-09T02:28:12.358Z,1014.55
2018-07-09T02:28:52.900Z,1014.51
2018-07-09T02:29:33.461Z,1014.55
2018-07-09T02:30:14.005Z,1014.51
2018-07-09T02:30:54.577Z,1014.51
2018-07-09T02:31:35.120Z,1014.5
2018-07-09T02:32:15.691Z,1014.51
2018-07-09T02:32:56.249Z,1014.52
2018-07-09T02:33:36.800Z,1014.53
2018-07-09T02:34:17.361Z,1014.55
2018-07-09T02:34:57.931Z,1014.52
2018-07-09T02:35:38.487Z,1014.51
2018-07-09T02:36:19.062Z,1014.51
2018-07-09T02:36:59.630Z,1014.52
2018-07-09T02:37:40.177Z,1014.54
2018-07-09T02:38:20.742Z,1014.56
2018-07-09T02:39:01.312Z,1014.5
2018-07-09T02:39:41.862Z,1014.51
2018-07-09T02:40:22.462Z,1014.57
2018-07-09T02:41:03.019Z,1014.51
2018-07-09T02:41:43.575Z,1014.45
2018-07-09T02:42:24.138Z,1014.44
2018-07-09T02:43:04.718Z,1014.45
2018-07-09T02:43:45.304Z,1014.42
2018-07-09T02:44:25.859Z,1014.44
2018-07-09T02:45:06.425Z,1014.44
2018-07-09T02:45:46.975Z,1014.4
2018-07-09T02:46:27.533Z,1014.46
2018-07-09T02:47:08.076Z,1014.45
2018-07-09T02:47:48.633Z,1014.45
2018-07-09T02:48:29.230Z,1014.42
2018-07-09T02:49:09.829Z,1014.46
2018-07-09T02:49:50.379Z,1014.43
2018-07-09T02:50:30.939Z,1014.49
2018-07-09T02:51:11.482Z,1014.46
2018-07-09T02:51:52.039Z,1014.43
2018-07-09T02:52:32.600Z,1014.45
2018-07-09T02:53:13.176Z,1014.51
2018-07-09T02:53:53.759Z,1014.49
2018-07-09T02:54:34.343Z,1014.47
2018-07-09T02:55:14.874Z,1014.5
2018-07-09T02:55:55.490Z,1014.47
2018-07-09T02:56:36.060Z,1014.51
2018-07-09T02:57:16.632Z,1014.49
2018-07-09T02:57:57.201Z,1014.48
2018-07-09T02:58:37.742Z,1014.44
2018-07-09T02:59:18.305Z,1014.47
2018-07-09T02:59:58.863Z,1014.42
2018-07-09T03:00:39.440Z,1014.44
2018-07-09T03:01:19.995Z,1014.47
2018-07-09T03:02:00.567Z,1014.46
2018-07-09T03:02:41.126Z,1014.48
2018-07-09T03:03:21.779Z,1014.49
2018-07-09T03:04:02.395Z,1014.5
2018-07-09T03:04:42.960Z,1014.48
2018-07-09T03:05:23.522Z,1014.49
2018-07-09T03:06:04.079Z,1014.54
2018-07-09T03:06:44.652Z,1014.51
2018-07-09T03:07:25.210Z,1014.52
2018-07-09T03:08:05.759Z,1014.54
2018-07-09T03:08:46.405Z,1014.5
2018-07-09T03:09:26.973Z,1014.53
2018-07-09T03:10:07.526Z,1014.51
2018-07-09T03:10:48.095Z,1014.55
2018-07-09T03:11:28.669Z,1014.53
2018-07-09T03:12:09.235Z,1014.57
2018-07-09T03:12:49.793Z,1014.54
2018-07-09T03:13:30.370Z,1014.56
2018-07-09T03:14:10.919Z,1014.56
2018-07-09T03:14:51.474Z,1014.59
2018-07-09T03:15:32.031Z,1014.54
2018-07-09T03:16:12.579Z,1014.55
2018-07-09T03:16:53.134Z,1014.56
2018-07-09T03:17:33.704Z,1014.6
2018-07-09T03:18:14.274Z,1014.61
2018-07-09T03:18:54.850Z,1014.63
2018-07-09T03:19:35.412Z,1014.59
2018-07-09T03:20:15.960Z,1014.58
2018-07-09T03:20:56.521Z,1014.58
2018-07-09T03:21:37.074Z,1014.61
2018-07-09T03:22:17.623Z,1014.62
2018-07-09T03:22:58.176Z,1014.56
2018-07-09T03:23:38.724Z,1014.61
2018-07-09T03:24:19.481Z,1014.61
2018-07-09T03:25:00.039Z,1014.61
2018-07-09T03:25:40.604Z,1014.62
2018-07-09T03:26:21.145Z,1014.63
2018-07-09T03:27:01.749Z,1014.63
2018-07-09T03:27:42.323Z,1014.62
2018-07-09T03:28:22.882Z,1014.65
2018-07-09T03:29:03.499Z,1014.66
2018-07-09T03:29:44.084Z,1014.61
2018-07-09T03:30:24.632Z,1014.6
2018-07-09T03:31:05.184Z,1014.6
2018-07-09T03:31:45.743Z,1014.61
2018-07-09T03:32:26.291Z,1014.61
2018-07-09T03:33:06.844Z,1014.6
2018-07-09T03:33:47.398Z,1014.62
2018-07-09T03:34:27.948Z,1014.62
2018-07-09T03:35:08.514Z,1014.6
2018-07-09T03:35:49.063Z,1014.65
2018-07-09T03:36:29.614Z,1014.62
2018-07-09T03:37:10.179Z,1014.64
2018-07-09T03:37:50.742Z,1014.67
2018-07-09T03:38:31.309Z,1014.63
2018-07-09T03:39:11.880Z,1014.65
2018-07-09T03:39:52.437Z,1014.65
2018-07-09T03:40:32.997Z,1014.63
2018-07-09T03:41:13.574Z,1014.64
2018-07-09T03:41:54.123Z,1014.61
2018-07-09T03:42:34.699Z,1014.57
2018-07-09T03:43:15.269Z,1014.63
2018-07-09T03:43:55.830Z,1014.56
2018-07-09T03:44:36.412Z,1014.58
2018-07-09T03:45:16.970Z,1014.59
2018-07-09T03:45:57.547Z,1014.62
2018-07-09T03:46:38.115Z,1014.59
2018-07-09T03:47:18.680Z,1014.56
2018-07-09T03:47:59.248Z,1014.61
2018-07-09T03:48:39.810Z,1014.58
2018-07-09T03:49:20.380Z,1014.55
2018-07-09T03:50:00.933Z,1014.56
2018-07-09T03:50:41.519Z,1014.61
2018-07-09T03:51:22.073Z,1014.57
2018-07-09T03:52:02.640Z,1014.57
2018-07-09T03:52:43.242Z,1014.56
2018-07-09T03:53:23.809Z,1014.54
2018-07-09T03:54:04.459Z,1014.57
2018-07-09T03:54:45.026Z,1014.56
2018-07-09T03:55:25.584Z,1014.55
2018-07-09T03:56:06.151Z,1014.53
2018-07-09T03:56:46.722Z,1014.56
2018-07-09T03:57:27.272Z,1014.53
2018-07-09T03:58:07.842Z,1014.56
2018-07-09T03:58:48.397Z,1014.56
2018-07-09T03:59:28.952Z,1014.54
2018-07-09T04:00:09.527Z,1014.56
2018-07-09T04:00:50.083Z,1014.6
2018-07-09T04:01:30.642Z,1014.6
2018-07-09T04:02:11.292Z,1014.58
2018-07-09T04:02:51.788Z,1014.59
2018-07-09T04:03:32.358Z,1014.59
2018-07-09T04:04:12.917Z,1014.59
2018-07-09T04:04:53.511Z,1014.54
2018-07-09T04:05:34.074Z,1014.58
2018-07-09T04:06:14.650Z,1014.61
2018-07-09T04:06:55.213Z,1014.64
2018-07-09T04:07:35.778Z,1014.58
2018-07-09T04:08:16.341Z,1014.64
2018-07-09T04:08:56.898Z,1014.6
2018-07-09T04:09:37.462Z,1014.59
2018-07-09T04:10:18.019Z,1014.6
2018-07-09T04:10:58.591Z,1014.57
2018-07-09T04:11:39.149Z,1014.56
2018-07-09T04:12:19.723Z,1014.55
2018-07-09T04:13:00.314Z,1014.52
2018-07-09T04:13:40.877Z,1014.54
2018-07-09T04:14:21.438Z,1014.51
2018-07-09T04:15:02.011Z,1014.49
2018-07-09T04:15:42.561Z,1014.49
2018-07-09T04:16:23.114Z,1014.51
2018-07-09T04:17:03.675Z,1014.47
2018-07-09T04:17:44.224Z,1014.46
2018-07-09T04:18:24.775Z,1014.42
2018-07-09T04:19:05.339Z,1014.46
2018-07-09T04:19:45.898Z,1014.41
2018-07-09T04:20:26.464Z,1014.44
2018-07-09T04:21:07.092Z,1014.44
2018-07-09T04:21:47.667Z,1014.47
2018-07-09T04:22:28.227Z,1014.45
2018-07-09T04:23:08.785Z,1014.43
2018-07-09T04:23:49.355Z,1014.47
2018-07-09T04:24:29.892Z,1014.52
2018-07-09T04:25:10.464Z,1014.51
2018-07-09T04:25:51.021Z,1014.52
2018-07-09T04:26:31.583Z,1014.48
2018-07-09T04:27:12.137Z,1014.51
2018-07-09T04:27:52.706Z,1014.48
2018-07-09T04:28:33.260Z,1014.52
2018-07-09T04:29:13.817Z,1014.52
2018-07-09T04:29:54.374Z,1014.53
2018-07-09T04:30:34.946Z,1014.52
2018-07-09T04:31:15.491Z,1014.48
2018-07-09T04:31:56.086Z,1014.51
2018-07-09T04:32:36.646Z,1014.48
2018-07-09T04:33:17.210Z,1014.47
2018-07-09T04:33:57.784Z,1014.48
2018-07-09T04:34:38.341Z,1014.47
2018-07-09T04:35:18.905Z,1014.49
2018-07-09T04:35:59.449Z,1014.51
2018-07-09T04:36:40.032Z,1014.54
2018-07-09T04:37:20.588Z,1014.49
2018-07-09T04:38:01.133Z,1014.51
2018-07-09T04:38:41.681Z,1014.52
2018-07-09T04:39:22.254Z,1014.47
2018-07-09T04:40:02.830Z,1014.48
2018-07-09T04:40:43.424Z,1014.44
2018-07-09T04:41:23.960Z,1014.5
2018-07-09T04:42:04.506Z,1014.47
2018-07-09T04:42:45.096Z,1014.49
2018-07-09T04:43:25.653Z,1014.51
2018-07-09T04:44:06.207Z,1014.49
2018-07-09T04:44:46.784Z,1014.5
2018-07-09T04:45:27.347Z,1014.5
2018-07-09T04:46:07.909Z,1014.49
2018-07-09T04:46:48.478Z,1014.49
2018-07-09T04:47:29.026Z,1014.54
2018-07-09T04:48:09.624Z,1014.48
2018-07-09T04:48:50.199Z,1014.49
2018-07-09T04:49:30.780Z,1014.53
2018-07-09T04:50:11.349Z,1014.52
2018-07-09T04:50:51.907Z,1014.49
2018-07-09T04:51:32.488Z,1014.47
2018-07-09T04:52:13.044Z,1014.5
2018-07-09T04:52:53.606Z,1014.49
2018-07-09T04:53:34.197Z,1014.47
2018-07-09T04:54:14.744Z,1014.5
2018-07-09T04:54:55.292Z,1014.47
2018-07-09T04:55:35.850Z,1014.49
2018-07-09T04:56:16.405Z,1014.48
2018-07-09T04:56:57.018Z,1014.5
2018-07-09T04:57:37.566Z,1014.53
2018-07-09T04:58:18.123Z,1014.52
2018-07-09T04:58:58.704Z,1014.55
2018-07-09T04:59:39.261Z,1014.53
2018-07-09T05:00:19.829Z,1014.55
2018-07-09T05:01:00.392Z,1014.55
2018-07-09T05:01:40.942Z,1014.58
2018-07-09T05:02:21.628Z,1014.55
2018-07-09T05:03:02.490Z,1014.6
2018-07-09T05:03:43.076Z,1014.53
2018-07-09T05:04:23.648Z,1014.58
2018-07-09T05:05:04.189Z,1014.55
2018-07-09T05:05:44.844Z,1014.53
2018-07-09T05:06:25.332Z,1014.55
2018-07-09T05:07:05.892Z,1014.56
2018-07-09T05:07:46.478Z,1014.52
2018-07-09T05:08:27.052Z,1014.49
2018-07-09T05:09:07.607Z,1014.49
2018-07-09T05:09:48.182Z,1014.47
2018-07-09T05:10:28.744Z,1014.48
2018-07-09T05:11:09.296Z,1014.49
2018-07-09T05:11:49.852Z,1014.47
2018-07-09T05:12:30.426Z,1014.45
2018-07-09T05:13:11.100Z,1014.46
2018-07-09T05:13:51.541Z,1014.47
2018-07-09T05:14:32.107Z,1014.43
2018-07-09T05:15:12.697Z,1014.45
2018-07-09T05:15:53.238Z,1014.43
2018-07-09T05:16:33.832Z,1014.42
2018-07-09T05:17:14.418Z,1014.44
2018-07-09T05:17:54.966Z,1014.42
2018-07-09T05:18:35.557Z,1014.41
2018-07-09T05:19:16.153Z,1014.43
2018-07-09T05:19:56.728Z,1014.42
2018-07-09T05:20:37.308Z,1014.41
2018-07-09T05:21:17.853Z,1014.4
2018-07-09T05:21:58.417Z,1014.4
2018-07-09T05:22:38.973Z,1014.39
2018-07-09T05:23:19.539Z,1014.43
2018-07-09T05:24:00.101Z,1014.4
2018-07-09T05:24:40.683Z,1014.4
2018-07-09T05:25:21.232Z,1014.42
2018-07-09T05:26:01.801Z,1014.42
2018-07-09T05:26:42.398Z,1014.43
2018-07-09T05:27:22.963Z,1014.43
2018-07-09T05:28:03.511Z,1014.49
2018-07-09T05:28:44.706Z,1014.46
2018-07-09T05:29:25.254Z,1014.46
2018-07-09T05:30:05.807Z,1014.44
2018-07-09T05:30:46.354Z,1014.48
2018-07-09T05:31:26.991Z,1014.47
2018-07-09T05:32:07.548Z,1014.46
2018-07-09T05:32:48.111Z,1014.54
2018-07-09T05:33:28.718Z,1014.56
2018-07-09T05:34:09.282Z,1014.56
2018-07-09T05:34:49.849Z,1014.6
2018-07-09T05:35:30.478Z,1014.64
2018-07-09T05:36:11.026Z,1014.7
2018-07-09T05:36:51.635Z,1014.63
2018-07-09T05:37:32.192Z,1014.72
2018-07-09T05:38:12.780Z,1014.72
2018-07-09T05:38:53.345Z,1014.72
2018-07-09T05:39:33.919Z,1014.65
2018-07-09T05:40:14.495Z,1014.56
2018-07-09T05:40:55.068Z,1014.72
2018-07-09T05:41:35.638Z,1014.62
2018-07-09T05:42:16.195Z,1014.62
2018-07-09T05:42:56.771Z,1014.77
2018-07-09T05:43:37.330Z,1014.65
2018-07-09T05:44:17.895Z,1014.63
2018-07-09T05:44:58.426Z,1014.75
2018-07-09T05:45:39.000Z,1014.82
2018-07-09T05:46:19.568Z,1014.61
2018-07-09T05:47:00.225Z,1014.83
2018-07-09T05:47:40.825Z,1014.99
2018-07-09T05:48:21.456Z,1014.92
2018-07-09T05:49:02.158Z,1014.77
2018-07-09T05:49:42.680Z,1015.13
2018-07-09T05:50:23.252Z,1014.7
2018-07-09T05:51:03.818Z,1014.56
2018-07-09T05:51:44.395Z,1014.61
2018-07-09T05:52:24.950Z,1014.91
2018-07-09T05:53:05.518Z,1014.65
2018-07-09T05:53:46.063Z,1014.74
2018-07-09T05:54:26.753Z,1014.66
2018-07-09T05:55:07.281Z,1014.63
2018-07-09T05:55:47.814Z,1014.75
2018-07-09T05:56:28.377Z,1014.55
2018-07-09T05:57:09.081Z,1015.1
2018-07-09T05:57:49.665Z,1014.55
2018-07-09T05:58:30.209Z,1014.62
2018-07-09T05:59:10.775Z,1014.68
2018-07-09T05:59:51.332Z,1015.71
2018-07-09T06:00:31.900Z,1015.82
2018-07-09T06:01:12.469Z,1015.62
2018-07-09T06:01:53.035Z,1015.95
2018-07-09T06:02:33.612Z,1015.7
2018-07-09T06:03:14.173Z,1015.66
2018-07-09T06:03:54.774Z,1016.3
2018-07-09T06:04:35.343Z,1016.26
2018-07-09T06:05:15.918Z,1015.51
2018-07-09T06:05:56.477Z,1016.16
2018-07-09T06:06:37.042Z,1016.09
2018-07-09T06:07:17.607Z,1015.07
2018-07-09T06:07:58.164Z,1014.6
2018-07-09T06:08:38.718Z,1015.83
2018-07-09T06:09:19.278Z,1015.43
2018-07-09T06:09:59.829Z,1015.61
2018-07-09T06:10:40.411Z,1014.98
2018-07-09T06:11:21.011Z,1015.63
2018-07-09T06:12:01.558Z,1015.52
2018-07-09T06:12:42.153Z,1015.47
2018-07-09T06:13:22.714Z,1015.41
2018-07-09T06:14:03.282Z,1015.42
2018-07-09T06:14:43.853Z,1015.42
2018-07-09T06:15:24.423Z,1015.41
2018-07-09T06:16:04.981Z,1015.35
2018-07-09T06:16:45.538Z,1015.33
2018-07-09T06:17:26.109Z,1015.43
2018-07-09T06:18:06.680Z,1015.46
2018-07-09T06:18:47.263Z,1015.32
2018-07-09T06:19:27.871Z,1015.24
2018-07-09T06:20:08.387Z,1015.25
2018-07-09T06:20:48.992Z,1015.33
2018-07-09T06:21:29.576Z,1015.37
2018-07-09T06:22:10.144Z,1015.35
2018-07-09T06:22:50.733Z,1015.41
2018-07-09T06:23:31.304Z,1015.39
2018-07-09T06:24:11.876Z,1015.35
2018-07-09T06:24:52.444Z,1015.3
2018-07-09T06:25:33.085Z,1015.27
2018-07-09T06:26:13.607Z,1015.3
2018-07-09T06:26:54.172Z,1015.33
2018-07-09T06:27:34.749Z,1015.44
2018-07-09T06:28:15.341Z,1015.47
2018-07-09T06:28:55.902Z,1015.59
2018-07-09T06:29:36.475Z,1015.66
2018-07-09T06:30:17.052Z,1015.73
2018-07-09T06:30:57.630Z,1015.67
2018-07-09T06:31:38.272Z,1015.63
2018-07-09T06:32:18.782Z,1015.72
2018-07-09T06:32:59.359Z,1015.74
2018-07-09T06:33:39.910Z,1015.63
2018-07-09T06:34:20.479Z,1015.52
2018-07-09T06:35:01.051Z,1015.47
2018-07-09T06:35:41.647Z,1015.54
2018-07-09T06:36:22.245Z,1015.63
2018-07-09T06:37:02.822Z,1015.64
2018-07-09T06:37:43.403Z,1015.58
2018-07-09T06:38:23.995Z,1015.29
2018-07-09T06:39:04.566Z,1015.25
2018-07-09T06:39:45.126Z,1015.12
2018-07-09T06:40:25.697Z,1015.26
2018-07-09T06:41:06.273Z,1015.31
2018-07-09T06:41:46.857Z,1015.35
2018-07-09T06:42:27.420Z,1015.27
2018-07-09T06:43:08.004Z,1015.16
2018-07-09T06:43:48.573Z,1015.23
2018-07-09T06:44:29.130Z,1015.2
2018-07-09T06:45:09.708Z,1014.89
2018-07-09T06:45:50.279Z,1015.17
2018-07-09T06:46:30.832Z,1014.69
2018-07-09T06:47:11.428Z,1014.88
2018-07-09T06:47:51.972Z,1014.85
2018-07-09T06:48:32.550Z,1014.75
2018-07-09T06:49:13.139Z,1014.68
2018-07-09T06:49:53.712Z,1014.69
2018-07-09T06:50:34.284Z,1014.73
2018-07-09T06:51:14.841Z,1014.63
2018-07-09T06:51:55.423Z,1014.75
2018-07-09T06:52:35.978Z,1014.68
2018-07-09T06:53:16.550Z,1014.76
2018-07-09T06:53:57.137Z,1014.78
2018-07-09T06:54:37.703Z,1014.77
2018-07-09T06:55:18.280Z,1014.8
2018-07-09T06:55:58.904Z,1014.91
2018-07-09T06:56:39.408Z,1015.06
2018-07-09T06:57:19.998Z,1015.08
2018-07-09T06:58:00.595Z,1014.99
2018-07-09T06:58:41.211Z,1014.94
2018-07-09T06:59:21.835Z,1014.84
2018-07-09T07:00:02.305Z,1014.8
2018-07-09T07:00:42.915Z,1014.8
2018-07-09T07:01:23.462Z,1014.8
2018-07-09T07:02:04.076Z,1014.78
2018-07-09T07:02:44.639Z,1014.81
2018-07-09T07:03:25.204Z,1014.78
2018-07-09T07:04:05.791Z,1014.77
2018-07-09T07:04:46.360Z,1014.8
2018-07-09T07:05:26.939Z,1014.77
2018-07-09T07:06:07.518Z,1014.76
2018-07-09T07:06:48.088Z,1014.75
2018-07-09T07:07:28.661Z,1014.76
2018-07-09T07:08:09.213Z,1014.76
2018-07-09T07:08:49.819Z,1014.77
2018-07-09T07:09:30.371Z,1014.8
2018-07-09T07:10:10.960Z,1014.74
2018-07-09T07:10:51.509Z,1014.74
2018-07-09T07:11:32.082Z,1014.72
2018-07-09T07:12:12.636Z,1014.67
2018-07-09T07:12:53.229Z,1014.66
2018-07-09T07:13:33.800Z,1014.67
2018-07-09T07:14:14.413Z,1014.73
2018-07-09T07:14:54.958Z,1014.8
2018-07-09T07:15:35.534Z,1014.86
2018-07-09T07:16:16.109Z,1014.83
2018-07-09T07:16:56.688Z,1014.76
2018-07-09T07:17:37.258Z,1014.72
2018-07-09T07:18:17.829Z,1014.7
2018-07-09T07:18:58.414Z,1014.65
2018-07-09T07:19:38.974Z,1014.73
2018-07-09T07:20:19.552Z,1014.69
2018-07-09T07:21:00.151Z,1014.7
2018-07-09T07:21:40.715Z,1014.68
2018-07-09T07:22:21.288Z,1014.68
2018-07-09T07:23:01.837Z,1014.67
2018-07-09T07:23:42.381Z,1014.69
2018-07-09T07:24:22.964Z,1014.72
2018-07-09T07:25:03.551Z,1014.78
2018-07-09T07:25:44.122Z,1014.82
2018-07-09T07:26:24.699Z,1014.86
2018-07-09T07:27:05.270Z,1014.85
2018-07-09T07:27:45.859Z,1014.92
2018-07-09T07:28:26.442Z,1014.85
2018-07-09T07:29:07.007Z,1014.87
2018-07-09T07:29:47.564Z,1014.86
2018-07-09T07:30:28.180Z,1014.86
2018-07-09T07:31:08.740Z,1014.85
2018-07-09T07:31:49.320Z,1014.8
2018-07-09T07:32:29.887Z,1014.78
2018-07-09T07:33:10.512Z,1014.7
2018-07-09T07:33:51.059Z,1014.72
2018-07-09T07:34:31.615Z,1014.68
2018-07-09T07:35:12.187Z,1014.76
2018-07-09T07:35:52.762Z,1014.73
2018-07-09T07:36:33.340Z,1014.75
2018-07-09T07:37:13.901Z,1014.78
2018-07-09T07:37:54.544Z,1014.74
2018-07-09T07:38:35.033Z,1014.76
2018-07-09T07:39:15.630Z,1014.78
2018-07-09T07:39:56.196Z,1014.76
2018-07-09T07:40:36.761Z,1014.72
2018-07-09T07:41:17.316Z,1014.65
2018-07-09T07:41:57.927Z,1014.64
2018-07-09T07:42:38.502Z,1014.62
2018-07-09T07:43:19.077Z,1014.65
2018-07-09T07:43:59.698Z,1014.68
2018-07-09T07:44:40.225Z,1014.67
2018-07-09T07:45:20.806Z,1014.72
2018-07-09T07:46:01.367Z,1014.7
2018-07-09T07:46:41.931Z,1014.68
2018-07-09T07:47:22.559Z,1014.68
2018-07-09T07:48:03.136Z,1014.68
2018-07-09T07:48:43.714Z,1014.66
2018-07-09T07:49:24.272Z,1014.66
2018-07-09T07:50:04.849Z,1014.66
2018-07-09T07:50:45.419Z,1014.66
2018-07-09T07:51:26.001Z,1014.68
2018-07-09T07:52:06.562Z,1014.63
2018-07-09T07:52:47.155Z,1014.65
2018-07-09T07:53:27.723Z,1014.63
2018-07-09T07:54:08.277Z,1014.66
2018-07-09T07:54:48.846Z,1014.62
2018-07-09T07:55:29.396Z,1014.63
2018-07-09T07:56:09.960Z,1014.63
2018-07-09T07:56:50.526Z,1014.59
2018-07-09T07:57:31.113Z,1014.56
2018-07-09T07:58:11.683Z,1014.57
2018-07-09T07:58:52.250Z,1014.55
2018-07-09T07:59:32.819Z,1014.52
2018-07-09T08:00:13.396Z,1014.47
2018-07-09T08:00:53.977Z,1014.48
2018-07-09T08:01:34.528Z,1014.46
2018-07-09T08:02:15.110Z,1014.43
2018-07-09T08:02:55.715Z,1014.39
2018-07-09T08:03:36.268Z,1014.46
2018-07-09T08:04:16.852Z,1014.44
2018-07-09T08:04:57.416Z,1014.47
2018-07-09T08:05:37.987Z,1014.45
2018-07-09T08:06:18.556Z,1014.44
2018-07-09T08:06:59.129Z,1014.46
2018-07-09T08:07:39.698Z,1014.41
2018-07-09T08:08:20.266Z,1014.37
2018-07-09T08:09:00.824Z,1014.4
2018-07-09T08:09:41.435Z,1014.35
2018-07-09T08:10:21.975Z,1014.31
2018-07-09T08:11:10.911Z,1014.32
2018-07-09T08:11:48.559Z,1014.31
2018-07-09T08:13:27.716Z,1014.32
2018-07-09T08:13:27.720Z,1014.33
2018-07-09T08:13:44.969Z,1014.28
2018-07-09T08:14:25.437Z,1014.29